Zargan, Iran
Current Conditions -  °F | °C
As of 11:00 AM on Tuesday 27 Jan 2015 (Local Time) from OISS Reporting Station
Clear Clear  
Wind Chill: 57°   Ceiling: Unl
Heat Index: 57°   Visibility: 6mi
Dew Point: 21°   Wind: 7mph
Humidity: 25%   Direction: 90°E
Pressure: 30.21"   Gusts: NA
Location:  29.78°N, 52.73°E
Report Text: OISS 270800Z 09006KT CAVOK 14/M06 Q1023 A3022
Loading
Personal Weather Stations






























Interactive Weather Map New forecast layout! Learn more

10-Day Weather Forecast

Advertisements
Track Severe Weather on mobile